createdAt,value
2022-08-14T00:01:55.388Z,2.25
2022-08-14T00:04:36.157Z,2.28
2022-08-14T00:07:10.260Z,2.00
2022-08-14T00:09:55.218Z,2.42
2022-08-14T00:12:47.928Z,2.17
2022-08-14T00:15:18.105Z,2.13
2022-08-14T00:17:47.474Z,2.35
2022-08-14T00:20:24.189Z,2.25
2022-08-14T00:22:58.889Z,2.80
2022-08-14T00:25:42.345Z,2.40
2022-08-14T00:28:15.386Z,2.47
2022-08-14T00:30:48.024Z,2.83
2022-08-14T00:33:17.675Z,2.72
2022-08-14T00:36:39.235Z,2.22
2022-08-14T00:38:34.930Z,2.40
2022-08-14T00:41:03.568Z,2.40
2022-08-14T00:43:32.230Z,2.20
2022-08-14T00:46:08.197Z,2.40
2022-08-14T00:48:38.499Z,2.78
2022-08-14T00:51:07.691Z,2.50
2022-08-14T00:53:36.288Z,2.38
2022-08-14T00:56:07.173Z,2.63
2022-08-14T00:58:38.935Z,2.85
2022-08-14T01:01:18.216Z,2.63
2022-08-14T01:03:52.858Z,2.65
2022-08-14T01:06:21.524Z,2.97
2022-08-14T01:08:57.783Z,2.53
2022-08-14T01:11:31.629Z,3.15
2022-08-14T01:14:04.925Z,2.70
2022-08-14T01:16:55.440Z,2.65
2022-08-14T01:19:41.863Z,2.97
2022-08-14T01:22:13.313Z,2.58
2022-08-14T01:24:47.776Z,2.65
2022-08-14T01:27:20.691Z,2.55
2022-08-14T01:30:01.397Z,2.88
2022-08-14T01:32:35.553Z,2.40
2022-08-14T01:35:20.560Z,2.70
2022-08-14T01:37:58.685Z,2.67
2022-08-14T01:40:36.167Z,3.00
2022-08-14T01:43:11.393Z,2.97
2022-08-14T01:45:40.330Z,2.55
2022-08-14T01:48:13.398Z,3.00
2022-08-14T01:50:44.118Z,2.65
2022-08-14T01:53:14.591Z,2.88
2022-08-14T01:55:42.847Z,3.33
2022-08-14T01:58:20.092Z,2.92
2022-08-14T02:00:55.679Z,2.63
2022-08-14T02:03:29.951Z,3.20
2022-08-14T02:06:00.034Z,2.90
2022-08-14T02:08:34.691Z,2.72
2022-08-14T02:11:18.941Z,2.85
2022-08-14T02:13:50.629Z,2.70
2022-08-14T02:16:22.461Z,3.13
2022-08-14T02:18:51.385Z,3.00
2022-08-14T02:21:23.137Z,3.40
2022-08-14T02:23:54.501Z,2.90
2022-08-14T02:26:29.740Z,2.60
2022-08-14T02:29:03.441Z,3.30
2022-08-14T02:31:42.250Z,3.17
2022-08-14T02:34:18.651Z,3.50
2022-08-14T02:37:04.249Z,2.90
2022-08-14T02:39:37.176Z,3.40
2022-08-14T02:42:05.908Z,3.40
2022-08-14T02:44:39.792Z,2.75
2022-08-14T02:47:15.233Z,3.42
2022-08-14T02:49:50.635Z,3.10
2022-08-14T02:52:56.694Z,3.38
2022-08-14T02:55:19.984Z,3.35
2022-08-14T02:58:03.272Z,3.20
2022-08-14T03:00:33.283Z,2.97
2022-08-14T03:03:02.710Z,3.13
2022-08-14T03:05:40.979Z,3.35
2022-08-14T03:08:11.290Z,3.10
2022-08-14T03:10:49.256Z,3.50
2022-08-14T03:13:19.571Z,3.40
2022-08-14T03:15:56.014Z,3.00
2022-08-14T03:18:31.294Z,3.15
2022-08-14T03:21:01.578Z,2.95
2022-08-14T03:23:37.914Z,3.45
2022-08-14T03:26:12.655Z,3.45
2022-08-14T03:28:48.532Z,3.60
2022-08-14T03:31:17.025Z,3.60
2022-08-14T03:33:45.511Z,3.30
2022-08-14T03:37:51.458Z,3.40
2022-08-14T03:39:22.267Z,3.92
2022-08-14T03:41:53.819Z,3.25
2022-08-14T03:45:19.382Z,3.58
2022-08-14T03:47:11.691Z,3.70
2022-08-14T03:49:42.399Z,3.50
2022-08-14T03:52:37.895Z,4.18
2022-08-14T03:54:59.965Z,4.28
2022-08-14T03:57:37.013Z,3.50
2022-08-14T04:00:13.856Z,3.38
2022-08-14T04:02:57.084Z,3.75
2022-08-14T04:05:26.372Z,3.60
2022-08-14T04:08:08.459Z,3.63
2022-08-14T04:10:42.525Z,3.60
2022-08-14T04:13:11.875Z,3.20
2022-08-14T04:15:55.855Z,3.67
2022-08-14T04:18:27.847Z,3.85
2022-08-14T04:20:58.556Z,3.83
2022-08-14T04:23:32.741Z,3.65
2022-08-14T04:26:01.860Z,3.50
2022-08-14T04:29:09.037Z,4.18
2022-08-14T04:32:58.555Z,3.83
2022-08-14T04:34:08.067Z,4.38
2022-08-14T04:37:00.260Z,3.50
2022-08-14T04:39:46.847Z,3.28
2022-08-14T04:42:32.245Z,3.35
2022-08-14T04:45:01.731Z,3.47
2022-08-14T04:47:46.943Z,3.55
2022-08-14T04:50:27.134Z,3.38
2022-08-14T04:53:01.900Z,4.00
2022-08-14T04:55:29.876Z,4.10
2022-08-14T04:57:59.377Z,3.78
2022-08-14T05:00:28.709Z,3.67
2022-08-14T05:02:57.201Z,4.10
2022-08-14T05:05:25.177Z,3.83
2022-08-14T05:08:01.581Z,3.92
2022-08-14T05:10:32.220Z,3.70
2022-08-14T05:13:24.220Z,3.50
2022-08-14T05:15:51.037Z,3.47
2022-08-14T05:19:16.903Z,3.70
2022-08-14T05:22:00.552Z,3.63
2022-08-14T05:24:00.076Z,3.35
2022-08-14T05:26:28.156Z,3.22
2022-08-14T05:28:56.775Z,3.65
2022-08-14T05:31:39.846Z,3.42
2022-08-14T05:34:09.785Z,3.17
2022-08-14T05:36:39.509Z,3.10
2022-08-14T05:39:08.243Z,3.72
2022-08-14T05:41:53.865Z,3.88
2022-08-14T05:44:27.884Z,4.00
2022-08-14T05:46:59.493Z,3.60
2022-08-14T05:49:33.732Z,3.60
2022-08-14T05:52:02.797Z,3.53
2022-08-14T05:54:35.217Z,3.90
2022-08-14T05:57:04.447Z,3.50
2022-08-14T05:59:39.248Z,3.83
2022-08-14T06:02:10.306Z,3.40
2022-08-14T06:04:38.899Z,2.97
2022-08-14T06:07:07.181Z,3.45
2022-08-14T06:09:40.588Z,3.10
2022-08-14T06:12:09.206Z,3.60
2022-08-14T06:14:37.639Z,3.58
2022-08-14T06:17:07.481Z,3.10
2022-08-14T06:19:38.726Z,3.45
2022-08-14T06:22:07.367Z,2.85
2022-08-14T06:24:36.895Z,3.45
2022-08-14T06:27:11.772Z,2.72
2022-08-14T06:29:39.822Z,3.40
2022-08-14T06:32:37.388Z,3.40
2022-08-14T06:35:10.162Z,2.97
2022-08-14T06:37:42.132Z,2.95
2022-08-14T06:40:25.552Z,3.22
2022-08-14T06:42:55.778Z,3.35
2022-08-14T06:45:26.071Z,3.17
2022-08-14T06:47:55.638Z,3.50
2022-08-14T06:50:30.263Z,2.92
2022-08-14T06:52:58.816Z,2.90
2022-08-14T06:55:28.239Z,3.20
2022-08-14T06:57:58.266Z,3.08
2022-08-14T07:00:30.533Z,3.20
2022-08-14T07:03:16.855Z,3.25
2022-08-14T07:05:57.700Z,3.40
2022-08-14T07:08:29.705Z,3.10
2022-08-14T07:11:01.100Z,3.00
2022-08-14T07:13:30.538Z,3.17
2022-08-14T07:16:00.719Z,3.30
2022-08-14T07:18:34.861Z,3.40
2022-08-14T07:21:05.786Z,3.13
2022-08-14T07:23:40.243Z,2.75
2022-08-14T07:26:13.214Z,3.22
2022-08-14T07:28:43.598Z,3.28
2022-08-14T07:31:12.957Z,3.38
2022-08-14T07:33:43.673Z,3.17
2022-08-14T07:36:29.892Z,2.88
2022-08-14T07:38:59.398Z,3.17
2022-08-14T07:41:33.938Z,3.63
2022-08-14T07:44:32.209Z,3.15
2022-08-14T07:46:52.711Z,3.45
2022-08-14T07:49:21.143Z,3.10
2022-08-14T07:51:55.444Z,3.25
2022-08-14T07:54:30.136Z,3.15
2022-08-14T07:56:59.796Z,3.20
2022-08-14T07:59:41.363Z,3.13
2022-08-14T08:02:19.389Z,3.63
2022-08-14T08:04:54.259Z,3.30
2022-08-14T08:07:30.129Z,3.38
2022-08-14T08:09:59.702Z,3.92
2022-08-14T08:12:31.212Z,3.63
2022-08-14T08:15:03.410Z,3.90
2022-08-14T08:17:38.734Z,3.58
2022-08-14T08:20:11.608Z,3.50
2022-08-14T08:22:48.210Z,3.05
2022-08-14T08:25:17.976Z,3.50
2022-08-14T08:27:55.710Z,2.55
2022-08-14T08:30:24.850Z,2.30
2022-08-14T08:32:53.800Z,2.30
2022-08-14T08:35:23.490Z,1.90
2022-08-14T08:38:01.396Z,2.42
2022-08-14T08:40:32.430Z,2.15
2022-08-14T08:43:01.843Z,2.35
2022-08-14T08:45:30.016Z,2.10
2022-08-14T08:47:58.164Z,2.40
2022-08-14T08:50:31.248Z,2.13
2022-08-14T08:53:02.014Z,2.78
2022-08-14T08:55:31.725Z,2.58
2022-08-14T08:58:01.209Z,2.38
2022-08-14T09:00:34.203Z,2.65
2022-08-14T09:03:05.733Z,1.83
2022-08-14T09:05:34.882Z,2.30
2022-08-14T09:08:21.673Z,3.00
2022-08-14T09:10:59.427Z,2.10
2022-08-14T09:13:30.557Z,2.72
2022-08-14T09:15:59.231Z,2.70
2022-08-14T09:18:28.516Z,2.40
2022-08-14T09:20:58.850Z,2.75
2022-08-14T09:23:34.899Z,2.85
2022-08-14T09:26:21.532Z,2.38
2022-08-14T09:28:50.041Z,2.65
2022-08-14T09:31:19.197Z,2.63
2022-08-14T09:33:56.467Z,2.95
2022-08-14T09:36:45.470Z,3.80
2022-08-14T09:39:23.065Z,3.00
2022-08-14T09:42:17.614Z,3.05
2022-08-14T09:44:59.876Z,2.80
2022-08-14T09:47:41.789Z,2.88
2022-08-14T09:50:17.332Z,1.83
2022-08-14T09:52:54.754Z,1.55
2022-08-14T09:55:26.035Z,1.10
2022-08-14T09:58:08.571Z,2.47
2022-08-14T10:00:44.831Z,2.80
2022-08-14T10:03:12.966Z,2.90
2022-08-14T10:05:41.488Z,2.60
2022-08-14T10:08:26.359Z,2.25
2022-08-14T10:10:57.256Z,2.80
2022-08-14T10:13:42.804Z,2.70
2022-08-14T10:16:25.757Z,2.72
2022-08-14T10:19:09.572Z,2.75
2022-08-14T10:21:58.293Z,2.50
2022-08-14T10:24:36.384Z,2.40
2022-08-14T10:27:18.471Z,1.95
2022-08-14T10:29:49.705Z,2.10
2022-08-14T10:32:28.859Z,2.17
2022-08-14T10:35:06.852Z,1.80
2022-08-14T10:37:44.233Z,1.60
2022-08-14T10:40:36.935Z,1.55
2022-08-14T10:43:02.719Z,1.48
2022-08-14T10:45:35.459Z,2.10
2022-08-14T10:48:08.621Z,1.60
2022-08-14T10:50:42.548Z,2.00
2022-08-14T10:53:10.588Z,1.63
2022-08-14T10:55:45.455Z,2.17
2022-08-14T10:58:17.227Z,2.22
2022-08-14T11:00:56.772Z,1.90
2022-08-14T11:03:26.613Z,1.98
2022-08-14T11:06:13.136Z,1.98
2022-08-14T11:08:41.040Z,1.92
2022-08-14T11:11:08.915Z,1.83
2022-08-14T11:13:39.196Z,1.60
2022-08-14T11:16:10.233Z,1.90
2022-08-14T11:18:40.445Z,1.40
2022-08-14T11:21:09.561Z,2.03
2022-08-14T11:23:41.164Z,2.00
2022-08-14T11:26:13.378Z,1.95
2022-08-14T11:28:47.018Z,1.52
2022-08-14T11:31:19.502Z,2.03
2022-08-14T11:33:49.593Z,1.90
2022-08-14T11:36:18.853Z,1.40
2022-08-14T11:38:48.094Z,1.67
2022-08-14T11:41:17.693Z,2.25
2022-08-14T11:43:58.200Z,1.15
2022-08-14T11:46:30.805Z,1.63
2022-08-14T11:49:06.628Z,0.77
2022-08-14T11:51:54.003Z,1.67
2022-08-14T11:54:34.062Z,1.50
2022-08-14T11:57:04.391Z,1.50
2022-08-14T11:59:34.427Z,1.70
2022-08-14T12:03:00.022Z,2.00
2022-08-14T12:05:00.389Z,1.50
2022-08-14T12:07:28.810Z,1.80
2022-08-14T12:10:00.728Z,1.67
2022-08-14T12:12:49.798Z,1.20
2022-08-14T12:15:29.778Z,1.65
2022-08-14T12:17:59.837Z,2.00
2022-08-14T12:20:33.674Z,1.77
2022-08-14T12:23:02.429Z,1.60
2022-08-14T12:25:34.635Z,1.60
2022-08-14T12:28:05.673Z,1.83
2022-08-14T12:30:40.020Z,1.80
2022-08-14T12:33:23.989Z,1.95
2022-08-14T12:35:57.544Z,1.90
2022-08-14T12:38:36.568Z,1.75
2022-08-14T12:41:07.989Z,1.80
2022-08-14T12:43:45.636Z,1.33
2022-08-14T12:46:28.312Z,2.33
2022-08-14T12:48:57.375Z,1.77
2022-08-14T12:51:27.549Z,1.73
2022-08-14T12:53:59.202Z,2.03
2022-08-14T12:56:33.341Z,1.75
2022-08-14T12:59:02.677Z,1.50
2022-08-14T13:01:56.831Z,1.60
2022-08-14T13:04:23.275Z,1.58
2022-08-14T13:06:52.962Z,1.88
2022-08-14T13:09:21.146Z,1.60
2022-08-14T13:11:59.318Z,1.80
2022-08-14T13:14:42.543Z,1.42
2022-08-14T13:17:12.271Z,1.70
2022-08-14T13:19:42.548Z,1.75
2022-08-14T13:22:28.898Z,2.25
2022-08-14T13:24:57.320Z,1.70
2022-08-14T13:27:27.465Z,2.13
2022-08-14T13:29:57.214Z,1.88
2022-08-14T13:32:28.862Z,2.03
2022-08-14T13:34:58.189Z,2.00
2022-08-14T13:37:28.293Z,1.98
2022-08-14T13:39:57.833Z,1.35
2022-08-14T13:42:30.577Z,1.27
2022-08-14T13:44:59.693Z,2.25
2022-08-14T13:47:30.900Z,1.95
2022-08-14T13:50:04.692Z,2.10
2022-08-14T13:52:52.583Z,1.08
2022-08-14T13:55:24.185Z,2.10
2022-08-14T13:58:04.217Z,1.60
2022-08-14T14:00:36.042Z,1.80
2022-08-14T14:03:22.308Z,2.25
2022-08-14T14:05:53.151Z,2.00
2022-08-14T14:08:46.238Z,1.60
2022-08-14T14:11:11.479Z,1.60
2022-08-14T14:13:45.131Z,1.10
2022-08-14T14:16:14.906Z,1.65
2022-08-14T14:18:49.026Z,1.70
2022-08-14T14:21:21.490Z,1.50
2022-08-14T14:23:50.334Z,1.77
2022-08-14T14:26:23.107Z,1.88
2022-08-14T14:28:52.481Z,1.48
2022-08-14T14:31:24.408Z,1.52
2022-08-14T14:34:00.586Z,1.45
2022-08-14T14:36:29.474Z,1.25
2022-08-14T14:38:58.675Z,1.88
2022-08-14T14:41:38.033Z,2.28
2022-08-14T14:44:09.226Z,1.42
2022-08-14T14:46:38.393Z,2.25
2022-08-14T14:49:14.570Z,2.25
2022-08-14T14:51:46.811Z,1.90
2022-08-14T14:54:19.886Z,1.48
2022-08-14T14:56:59.921Z,1.52
2022-08-14T14:59:27.974Z,1.58
2022-08-14T15:02:00.618Z,1.80
2022-08-14T15:04:33.427Z,2.10
2022-08-14T15:07:07.112Z,1.80
2022-08-14T15:09:35.202Z,1.90
2022-08-14T15:12:15.987Z,1.60
2022-08-14T15:14:55.785Z,1.80
2022-08-14T15:17:28.462Z,1.65
2022-08-14T15:20:05.801Z,1.80
2022-08-14T15:22:33.931Z,1.90
2022-08-14T15:25:01.987Z,2.03
2022-08-14T15:27:31.683Z,1.70
2022-08-14T15:30:00.004Z,1.80
2022-08-14T15:32:29.239Z,2.08
2022-08-14T15:34:59.200Z,1.90
2022-08-14T15:37:32.686Z,2.65
2022-08-14T15:40:02.343Z,1.80
2022-08-14T15:42:37.206Z,1.70
2022-08-14T15:45:10.280Z,2.00
2022-08-14T15:47:41.664Z,1.55
2022-08-14T15:50:11.016Z,1.70
2022-08-14T15:52:45.035Z,1.60
2022-08-14T15:55:15.339Z,1.90
2022-08-14T15:58:02.272Z,1.92
2022-08-14T16:00:51.819Z,1.70
2022-08-14T16:03:27.893Z,3.35
2022-08-14T16:06:04.308Z,8.30
2022-08-14T16:08:34.054Z,9.75
2022-08-14T16:11:03.465Z,2.05
2022-08-14T16:13:39.613Z,1.80
2022-08-14T16:16:34.861Z,1.70
2022-08-14T16:19:07.274Z,1.77
2022-08-14T16:21:39.493Z,1.90
2022-08-14T16:24:27.855Z,2.05
2022-08-14T16:27:01.030Z,3.65
2022-08-14T16:29:30.029Z,1.85
2022-08-14T16:31:59.181Z,1.90
2022-08-14T16:34:45.331Z,1.70
2022-08-14T16:37:18.696Z,1.70
2022-08-14T16:39:48.863Z,1.70
2022-08-14T16:43:02.340Z,1.58
2022-08-14T16:45:05.585Z,1.67
2022-08-14T16:47:35.140Z,1.50
2022-08-14T16:50:08.478Z,2.17
2022-08-14T16:52:44.418Z,1.73
2022-08-14T16:55:30.348Z,1.83
2022-08-14T16:57:59.169Z,1.95
2022-08-14T17:00:29.184Z,1.77
2022-08-14T17:03:02.011Z,1.63
2022-08-14T17:05:30.864Z,1.60
2022-08-14T17:08:41.748Z,2.20
2022-08-14T17:11:01.329Z,2.00
2022-08-14T17:13:58.337Z,2.30
2022-08-14T17:16:25.280Z,2.10
2022-08-14T17:19:00.624Z,1.90
2022-08-14T17:21:31.869Z,2.10
2022-08-14T17:24:00.803Z,2.00
2022-08-14T17:26:55.567Z,2.25
2022-08-14T17:29:29.513Z,1.80
2022-08-14T17:32:02.079Z,1.75
2022-08-14T17:34:44.563Z,2.40
2022-08-14T17:37:24.254Z,2.05
2022-08-14T17:40:00.884Z,1.90
2022-08-14T17:42:51.196Z,1.65
2022-08-14T17:45:28.200Z,2.00
2022-08-14T17:48:01.755Z,1.83
2022-08-14T17:51:00.477Z,1.92
2022-08-14T17:53:30.617Z,2.60
2022-08-14T17:56:02.835Z,4.00
2022-08-14T17:58:38.764Z,5.93
2022-08-14T18:01:14.133Z,7.65
2022-08-14T18:03:50.077Z,4.28
2022-08-14T18:06:38.296Z,3.33
2022-08-14T18:09:24.657Z,2.53
2022-08-14T18:11:54.136Z,2.28
2022-08-14T18:14:33.119Z,2.90
2022-08-14T18:17:13.746Z,2.00
2022-08-14T18:19:45.079Z,2.28
2022-08-14T18:22:32.943Z,2.03
2022-08-14T18:25:02.376Z,2.38
2022-08-14T18:27:33.752Z,2.38
2022-08-14T18:30:33.553Z,2.17
2022-08-14T18:32:55.105Z,2.65
2022-08-14T18:35:45.648Z,2.90
2022-08-14T18:38:26.439Z,2.78
2022-08-14T18:41:23.378Z,2.72
2022-08-14T18:44:03.195Z,2.83
2022-08-14T18:47:00.049Z,2.90
2022-08-14T18:49:20.751Z,3.38
2022-08-14T18:52:13.200Z,2.92
2022-08-14T18:54:48.689Z,6.93
2022-08-14T18:57:40.294Z,3.58
2022-08-14T19:00:40.831Z,3.38
2022-08-14T19:03:12.409Z,4.10
2022-08-14T19:06:04.523Z,3.58
2022-08-14T19:08:37.917Z,3.85
2022-08-14T19:11:07.049Z,3.90
2022-08-14T19:13:47.913Z,3.50
2022-08-14T19:16:22.798Z,2.67
2022-08-14T19:18:54.609Z,2.88
2022-08-14T19:21:29.863Z,2.80
2022-08-14T19:24:29.556Z,3.17
2022-08-14T19:27:16.448Z,2.75
2022-08-14T19:29:50.936Z,3.47
2022-08-14T19:32:40.354Z,3.15
2022-08-14T19:35:49.135Z,3.50
2022-08-14T19:38:37.201Z,4.03
2022-08-14T19:41:14.531Z,5.00
2022-08-14T19:43:55.704Z,3.10
2022-08-14T19:46:39.052Z,3.65
2022-08-14T19:49:14.630Z,3.35
2022-08-14T19:51:52.424Z,2.80
2022-08-14T19:54:20.185Z,2.90
2022-08-14T19:56:48.436Z,3.60
2022-08-14T19:59:18.705Z,3.35
2022-08-14T20:01:51.265Z,3.47
2022-08-14T20:04:46.327Z,3.30
2022-08-14T20:07:27.424Z,3.60
2022-08-14T20:11:07.974Z,3.80
2022-08-14T20:13:14.128Z,3.60
2022-08-14T20:15:47.218Z,2.83
2022-08-14T20:18:45.916Z,3.88
2022-08-14T20:21:05.328Z,3.95
2022-08-14T20:23:38.496Z,3.33
2022-08-14T20:26:30.463Z,3.35
2022-08-14T20:29:04.620Z,3.53
2022-08-14T20:31:37.471Z,3.53
2022-08-14T20:34:07.213Z,3.10
2022-08-14T20:36:38.799Z,2.75
2022-08-14T20:39:15.728Z,2.50
2022-08-14T20:41:44.372Z,2.60
2022-08-14T20:44:38.397Z,2.30
2022-08-14T20:47:06.245Z,2.10
2022-08-14T20:49:37.373Z,1.83
2022-08-14T20:52:19.094Z,2.00
2022-08-14T20:54:51.825Z,1.80
2022-08-14T20:57:20.485Z,1.67
2022-08-14T20:59:53.437Z,1.92
2022-08-14T21:02:34.620Z,1.77
2022-08-14T21:05:16.676Z,1.92
2022-08-14T21:07:50.386Z,1.95
2022-08-14T21:10:34.097Z,1.85
2022-08-14T21:13:25.649Z,1.95
2022-08-14T21:15:57.503Z,1.60
2022-08-14T21:18:29.757Z,1.77
2022-08-14T21:20:58.596Z,1.95
2022-08-14T21:23:32.868Z,1.52
2022-08-14T21:26:03.679Z,2.03
2022-08-14T21:28:35.313Z,1.77
2022-08-14T21:31:04.261Z,1.95
2022-08-14T21:33:35.874Z,1.90
2022-08-14T21:36:07.875Z,2.35
2022-08-14T21:38:38.012Z,1.35
2022-08-14T21:41:42.653Z,1.80
2022-08-14T21:44:18.038Z,2.15
2022-08-14T21:46:49.831Z,1.63
2022-08-14T21:49:23.494Z,2.38
2022-08-14T21:51:57.805Z,1.60
2022-08-14T21:54:34.097Z,1.70
2022-08-14T21:57:17.530Z,1.65
2022-08-14T21:59:45.701Z,1.92
2022-08-14T22:02:33.019Z,1.58
2022-08-14T22:05:03.692Z,1.38
2022-08-14T22:07:34.252Z,1.88
2022-08-14T22:10:02.473Z,1.90
2022-08-14T22:12:57.409Z,1.90
2022-08-14T22:15:22.473Z,1.80
2022-08-14T22:17:52.542Z,1.90
2022-08-14T22:20:28.129Z,1.73
2022-08-14T22:22:57.273Z,1.58
2022-08-14T22:25:32.973Z,2.00
2022-08-14T22:28:02.243Z,2.00
2022-08-14T22:30:30.394Z,1.60
2022-08-14T22:33:00.209Z,1.60
2022-08-14T22:35:30.388Z,1.90
2022-08-14T22:38:34.783Z,2.15
2022-08-14T22:41:06.600Z,1.75
2022-08-14T22:43:36.219Z,1.75
2022-08-14T22:46:14.987Z,1.70
2022-08-14T22:48:45.572Z,1.67
2022-08-14T22:51:16.074Z,2.13
2022-08-14T22:53:46.271Z,1.85
2022-08-14T22:56:21.261Z,1.88
2022-08-14T22:58:54.043Z,1.75
2022-08-14T23:01:24.301Z,1.50
2022-08-14T23:04:12.292Z,2.10
2022-08-14T23:07:04.957Z,2.00
2022-08-14T23:09:36.096Z,1.80
2022-08-14T23:12:27.374Z,2.08
2022-08-14T23:14:55.918Z,1.75
2022-08-14T23:17:24.085Z,2.28
2022-08-14T23:19:56.409Z,2.00
2022-08-14T23:22:26.580Z,1.85
2022-08-14T23:24:57.850Z,1.58
2022-08-14T23:27:31.572Z,1.98
2022-08-14T23:30:00.200Z,2.10
2022-08-14T23:32:30.043Z,2.30
2022-08-14T23:34:58.775Z,2.00
2022-08-14T23:37:28.581Z,1.88
2022-08-14T23:39:57.102Z,1.60
2022-08-14T23:42:40.248Z,2.00
2022-08-14T23:45:09.496Z,1.85
2022-08-14T23:47:52.121Z,1.40
2022-08-14T23:50:34.604Z,2.10
2022-08-14T23:53:28.324Z,2.03
2022-08-14T23:56:07.672Z,1.98
2022-08-14T23:58:36.945Z,2.03
